createdAt,value
2022-08-18T00:03:00.974Z,4.85
2022-08-18T00:06:06.055Z,4.32
2022-08-18T00:09:10.211Z,5.20
2022-08-18T00:12:15.922Z,6.68
2022-08-18T00:15:19.344Z,6.25
2022-08-18T00:18:22.451Z,9.57
2022-08-18T00:21:26.719Z,5.80
2022-08-18T00:24:31.133Z,6.43
2022-08-18T00:27:34.213Z,8.02
2022-08-18T00:30:37.107Z,7.20
2022-08-18T00:33:40.290Z,13.75
2022-08-18T00:36:44.450Z,8.55
2022-08-18T00:39:47.944Z,8.07
2022-08-18T00:42:52.709Z,7.15
2022-08-18T00:45:55.741Z,9.20
2022-08-18T00:48:58.964Z,13.45
2022-08-18T00:52:04.511Z,9.75
2022-08-18T00:55:08.006Z,8.27
2022-08-18T00:58:12.999Z,10.10
2022-08-18T01:01:17.943Z,7.22
2022-08-18T01:04:23.849Z,12.77
2022-08-18T01:07:29.743Z,5.75
2022-08-18T01:10:34.045Z,11.55
2022-08-18T01:13:38.758Z,8.15
2022-08-18T01:16:59.191Z,7.47
2022-08-18T01:20:20.024Z,10.98
2022-08-18T01:23:24.477Z,10.85
2022-08-18T01:26:26.965Z,9.77
2022-08-18T01:29:30.028Z,7.07
2022-08-18T01:32:32.707Z,6.82
2022-08-18T01:35:37.148Z,7.40
2022-08-18T01:38:47.368Z,7.60
2022-08-18T01:41:50.360Z,11.63
2022-08-18T01:44:54.098Z,11.70
2022-08-18T01:47:56.855Z,9.25
2022-08-18T01:50:59.661Z,5.32
2022-08-18T01:54:04.636Z,5.68
2022-08-18T01:57:07.452Z,6.38
2022-08-18T02:00:12.384Z,5.18
2022-08-18T02:03:15.816Z,9.18
2022-08-18T02:06:32.367Z,7.43
2022-08-18T02:09:39.105Z,7.43
2022-08-18T02:12:42.374Z,7.20
2022-08-18T02:15:45.170Z,7.03
2022-08-18T02:18:48.934Z,6.20
2022-08-18T02:21:52.778Z,5.18
2022-08-18T02:24:57.640Z,5.63
2022-08-18T02:28:00.392Z,10.35
2022-08-18T02:31:05.057Z,4.80
2022-08-18T02:34:07.836Z,4.20
2022-08-18T02:37:15.174Z,9.95
2022-08-18T02:40:20.545Z,7.20
2022-08-18T02:43:23.752Z,5.68
2022-08-18T02:46:29.226Z,15.02
2022-08-18T02:49:33.241Z,5.63
2022-08-18T02:52:36.068Z,8.25
2022-08-18T02:55:41.408Z,5.88
2022-08-18T02:58:44.229Z,6.75
2022-08-18T03:01:48.998Z,5.88
2022-08-18T03:04:52.682Z,5.78
2022-08-18T03:07:55.468Z,4.97
2022-08-18T03:10:59.682Z,8.00
2022-08-18T03:14:02.869Z,8.00
2022-08-18T03:17:06.297Z,6.68
2022-08-18T03:20:09.429Z,10.63
2022-08-18T03:23:12.901Z,6.00
2022-08-18T03:26:19.026Z,7.15
2022-08-18T03:29:22.028Z,6.57
2022-08-18T03:32:24.772Z,7.97
2022-08-18T03:35:27.534Z,5.97
2022-08-18T03:38:31.147Z,3.95
2022-08-18T03:41:57.044Z,5.82
2022-08-18T03:44:58.746Z,8.52
2022-08-18T03:48:02.129Z,5.93
2022-08-18T03:51:06.723Z,4.95
2022-08-18T03:54:09.747Z,6.80
2022-08-18T03:57:14.250Z,6.28
2022-08-18T04:00:18.346Z,5.72
2022-08-18T04:03:21.124Z,8.88
2022-08-18T04:06:30.893Z,6.05
2022-08-18T04:09:35.116Z,6.57
2022-08-18T04:12:42.370Z,5.47
2022-08-18T04:15:45.137Z,7.70
2022-08-18T04:18:47.958Z,4.65
2022-08-18T04:21:53.105Z,8.70
2022-08-18T04:24:57.919Z,6.72
2022-08-18T04:28:03.357Z,7.13
2022-08-18T04:31:09.139Z,4.47
2022-08-18T04:34:13.784Z,8.45
2022-08-18T04:37:16.570Z,6.70
2022-08-18T04:40:24.861Z,9.18
2022-08-18T04:43:29.503Z,4.03
2022-08-18T04:46:41.271Z,5.63
2022-08-18T04:49:44.645Z,4.90
2022-08-18T04:53:06.064Z,6.47
2022-08-18T04:56:10.329Z,6.50
2022-08-18T04:59:15.262Z,5.55
2022-08-18T05:02:19.463Z,5.63
2022-08-18T05:05:22.191Z,9.98
2022-08-18T05:08:25.138Z,7.50
2022-08-18T05:11:29.401Z,7.15
2022-08-18T05:14:36.049Z,12.35
2022-08-18T05:17:40.878Z,7.07
2022-08-18T05:20:44.645Z,7.63
2022-08-18T05:23:51.189Z,5.68
2022-08-18T05:26:55.183Z,6.88
2022-08-18T05:30:03.706Z,6.05
2022-08-18T05:33:11.403Z,8.88
2022-08-18T05:36:25.398Z,9.00
2022-08-18T05:39:31.367Z,8.27
2022-08-18T05:42:36.570Z,6.82
2022-08-18T05:45:41.195Z,8.20
2022-08-18T05:48:44.169Z,7.57
2022-08-18T05:51:48.085Z,10.40
2022-08-18T05:55:11.269Z,8.68
2022-08-18T05:58:19.142Z,13.27
2022-08-18T06:01:25.000Z,12.32
2022-08-18T06:04:38.982Z,8.95
2022-08-18T06:07:46.898Z,7.85
2022-08-18T06:10:51.366Z,7.88
2022-08-18T06:13:59.381Z,9.43
2022-08-18T06:17:09.260Z,8.98
2022-08-18T06:20:15.277Z,9.48
2022-08-18T06:23:24.203Z,11.02
2022-08-18T06:26:34.536Z,9.23
2022-08-18T06:29:47.937Z,9.60
2022-08-18T06:33:00.300Z,10.88
2022-08-18T06:36:04.897Z,10.88
2022-08-18T06:39:12.987Z,7.75
2022-08-18T06:42:18.093Z,8.57
2022-08-18T06:45:36.451Z,12.35
2022-08-18T06:48:48.113Z,10.95
2022-08-18T06:51:51.024Z,9.32
2022-08-18T06:54:54.759Z,10.38
2022-08-18T06:58:02.327Z,10.63
2022-08-18T07:01:07.247Z,8.85
2022-08-18T07:04:11.544Z,9.77
2022-08-18T07:07:22.218Z,10.88
2022-08-18T07:10:33.965Z,10.45
2022-08-18T07:13:41.095Z,20.35
2022-08-18T07:16:58.211Z,8.70
2022-08-18T07:20:06.891Z,12.55
2022-08-18T07:23:10.792Z,12.07
2022-08-18T07:26:15.827Z,9.30
2022-08-18T07:29:18.854Z,8.50
2022-08-18T07:32:22.883Z,15.55
2022-08-18T07:35:31.015Z,9.25
2022-08-18T07:38:43.077Z,9.60
2022-08-18T07:41:50.949Z,11.02
2022-08-18T07:44:56.132Z,12.50
2022-08-18T07:48:10.894Z,10.52
2022-08-18T07:51:32.561Z,9.50
2022-08-18T07:54:51.837Z,10.35
2022-08-18T07:57:58.953Z,10.45
2022-08-18T08:01:04.691Z,14.60
2022-08-18T08:04:25.344Z,13.00
2022-08-18T08:07:32.975Z,15.60
2022-08-18T08:10:42.255Z,14.98
2022-08-18T08:13:57.601Z,17.60
2022-08-18T08:17:04.873Z,17.55
2022-08-18T08:20:15.576Z,19.60
2022-08-18T08:23:27.388Z,25.00
2022-08-18T08:26:37.709Z,25.25
2022-08-18T08:29:43.997Z,25.20
2022-08-18T08:32:50.724Z,23.08
2022-08-18T08:35:58.475Z,25.33
2022-08-18T08:39:04.921Z,27.05
2022-08-18T08:42:30.658Z,22.27
2022-08-18T08:45:35.370Z,26.45
2022-08-18T08:48:42.514Z,24.33
2022-08-18T08:51:48.909Z,23.85
2022-08-18T08:54:59.469Z,26.85
2022-08-18T08:58:12.840Z,22.50
2022-08-18T09:01:23.872Z,24.08
2022-08-18T09:04:32.184Z,23.38
2022-08-18T09:07:40.795Z,23.35
2022-08-18T09:10:51.203Z,26.50
2022-08-18T09:14:03.376Z,26.38
2022-08-18T09:17:23.832Z,25.35
2022-08-18T09:20:49.463Z,23.70
2022-08-18T09:23:54.258Z,25.88
2022-08-18T09:27:13.635Z,26.70
2022-08-18T09:30:31.987Z,30.65
2022-08-18T09:33:49.758Z,24.83
2022-08-18T09:37:02.094Z,22.17
2022-08-18T09:40:51.444Z,22.05
2022-08-18T09:44:09.872Z,21.88
2022-08-18T09:47:35.958Z,21.55
2022-08-18T09:50:53.318Z,23.38
2022-08-18T09:54:08.644Z,20.27
2022-08-18T09:57:20.705Z,22.60
2022-08-18T10:00:28.536Z,22.08
2022-08-18T10:03:31.568Z,24.77
2022-08-18T10:06:38.311Z,27.48
2022-08-18T10:10:12.847Z,24.13
2022-08-18T10:13:38.739Z,29.25
2022-08-18T10:17:13.470Z,23.35
2022-08-18T10:20:26.483Z,23.92
2022-08-18T10:23:58.121Z,26.27
2022-08-18T10:27:13.800Z,26.55
2022-08-18T10:30:56.717Z,24.83
2022-08-18T10:37:47.042Z,22.45
2022-08-18T10:41:15.233Z,21.70
2022-08-18T10:44:29.188Z,19.40
2022-08-18T10:47:35.556Z,19.67
2022-08-18T10:50:44.667Z,19.70
2022-08-18T10:53:52.120Z,26.08
2022-08-18T10:56:58.661Z,24.60
2022-08-18T11:00:05.078Z,22.30
2022-08-18T11:06:41.671Z,20.40
2022-08-18T11:13:20.009Z,19.08
2022-08-18T11:16:29.615Z,21.50
2022-08-18T11:19:42.076Z,18.30
2022-08-18T11:22:51.730Z,15.75
2022-08-18T11:25:54.709Z,19.85
2022-08-18T11:28:59.018Z,19.48
2022-08-18T11:32:04.462Z,15.23
2022-08-18T11:35:12.161Z,18.63
2022-08-18T11:41:48.234Z,18.20
2022-08-18T11:44:54.918Z,15.63
2022-08-18T11:48:03.103Z,22.17
2022-08-18T11:51:11.193Z,21.33
2022-08-18T11:54:23.183Z,16.77
2022-08-18T11:57:31.393Z,18.92
2022-08-18T12:00:42.963Z,19.27
2022-08-18T12:03:49.118Z,17.35
2022-08-18T12:07:02.022Z,24.67
2022-08-18T12:10:18.315Z,17.50
2022-08-18T12:13:25.668Z,19.10
2022-08-18T12:16:36.053Z,12.98
2022-08-18T12:19:39.081Z,14.98
2022-08-18T12:22:46.561Z,12.25
2022-08-18T12:29:12.450Z,15.65
2022-08-18T12:32:41.491Z,18.85
2022-08-18T12:35:49.375Z,15.30
2022-08-18T12:38:56.253Z,19.15
2022-08-18T12:42:03.440Z,14.30
2022-08-18T12:45:07.316Z,14.90
2022-08-18T12:48:13.517Z,14.23
2022-08-18T12:51:16.372Z,20.08
2022-08-18T12:54:20.035Z,17.08
2022-08-18T12:57:33.390Z,15.73
2022-08-18T13:00:48.183Z,11.43
2022-08-18T13:04:11.371Z,13.88
2022-08-18T13:07:19.076Z,14.10
2022-08-18T13:10:44.880Z,13.82
2022-08-18T13:13:46.742Z,14.52
2022-08-18T13:17:02.249Z,11.82
2022-08-18T13:20:09.188Z,14.30
2022-08-18T13:23:24.993Z,11.50
2022-08-18T13:26:29.494Z,11.85
2022-08-18T13:33:57.507Z,8.95
2022-08-18T13:37:02.710Z,10.63
2022-08-18T13:40:07.075Z,12.77
2022-08-18T13:43:10.709Z,9.88
2022-08-18T13:46:30.125Z,10.45
2022-08-18T13:49:34.427Z,9.23
2022-08-18T13:52:49.605Z,10.40
2022-08-18T13:55:52.774Z,9.80
2022-08-18T13:58:56.180Z,7.45
2022-08-18T14:01:59.206Z,13.43
2022-08-18T14:05:03.935Z,6.82
2022-08-18T14:08:11.079Z,9.13
2022-08-18T14:11:26.728Z,8.25
2022-08-18T14:14:31.236Z,7.72
2022-08-18T14:17:37.772Z,8.50
2022-08-18T14:21:00.280Z,10.80
2022-08-18T14:24:24.989Z,6.35
2022-08-18T14:27:34.968Z,6.93
2022-08-18T14:30:39.065Z,6.38
2022-08-18T14:33:50.637Z,7.25
2022-08-18T14:36:55.154Z,7.13
2022-08-18T14:39:59.763Z,5.55
2022-08-18T14:43:06.567Z,7.13
2022-08-18T14:46:12.545Z,9.02
2022-08-18T14:49:15.721Z,5.88
2022-08-18T14:52:31.700Z,6.30
2022-08-18T14:55:37.848Z,7.82
2022-08-18T14:58:42.334Z,7.40
2022-08-18T15:01:45.151Z,7.82
2022-08-18T15:04:55.955Z,8.07
2022-08-18T15:08:03.967Z,7.90
2022-08-18T15:11:11.731Z,8.55
2022-08-18T15:14:15.519Z,7.40
2022-08-18T15:17:18.844Z,8.30
2022-08-18T15:20:28.880Z,8.20
2022-08-18T15:23:50.199Z,11.90
2022-08-18T15:27:05.625Z,9.60
2022-08-18T15:30:12.732Z,10.20
2022-08-18T15:33:25.861Z,8.18
2022-08-18T15:36:42.849Z,6.45
2022-08-18T15:39:51.893Z,8.25
2022-08-18T15:43:09.904Z,8.75
2022-08-18T15:46:16.786Z,6.93
2022-08-18T15:49:23.235Z,8.07
2022-08-18T15:52:26.308Z,9.88
2022-08-18T15:55:35.849Z,5.80
2022-08-18T15:58:42.219Z,9.35
2022-08-18T16:01:49.940Z,6.03
2022-08-18T16:04:53.431Z,7.75
2022-08-18T16:07:57.682Z,12.13
2022-08-18T16:11:07.331Z,11.30
2022-08-18T16:14:11.716Z,10.55
2022-08-18T16:17:23.796Z,11.88
2022-08-18T16:20:33.467Z,8.02
2022-08-18T16:23:36.993Z,10.40
2022-08-18T16:26:40.431Z,10.52
2022-08-18T16:29:44.737Z,13.30
2022-08-18T16:32:47.767Z,9.88
2022-08-18T16:35:52.054Z,9.88
2022-08-18T16:38:56.064Z,9.82
2022-08-18T16:42:01.521Z,10.00
2022-08-18T16:45:10.837Z,8.88
2022-08-18T16:48:16.966Z,8.40
2022-08-18T16:51:21.843Z,9.20
2022-08-18T16:54:24.642Z,9.52
2022-08-18T16:57:55.599Z,9.45
2022-08-18T17:01:32.439Z,8.75
2022-08-18T17:04:52.158Z,9.25
2022-08-18T17:07:55.751Z,9.75
2022-08-18T17:11:03.942Z,7.22
2022-08-18T17:14:07.603Z,9.02
2022-08-18T17:17:12.347Z,7.32
2022-08-18T17:20:17.769Z,10.32
2022-08-18T17:23:22.545Z,8.27
2022-08-18T17:26:30.946Z,9.07
2022-08-18T17:29:36.694Z,8.98
2022-08-18T17:32:44.083Z,6.55
2022-08-18T17:35:48.184Z,10.00
2022-08-18T17:38:54.015Z,7.45
2022-08-18T17:42:14.370Z,9.07
2022-08-18T17:45:21.764Z,9.05
2022-08-18T17:48:33.220Z,10.15
2022-08-18T17:51:43.370Z,9.65
2022-08-18T17:54:50.295Z,7.30
2022-08-18T17:58:02.699Z,8.77
2022-08-18T18:01:05.595Z,8.10
2022-08-18T18:04:10.092Z,7.80
2022-08-18T18:07:23.828Z,6.60
2022-08-18T18:10:29.254Z,9.73
2022-08-18T18:13:32.501Z,6.65
2022-08-18T18:16:37.095Z,6.60
2022-08-18T18:19:43.066Z,6.95
2022-08-18T18:22:46.301Z,6.00
2022-08-18T18:25:50.208Z,8.55
2022-08-18T18:28:53.443Z,9.68
2022-08-18T18:32:01.835Z,5.38
2022-08-18T18:35:35.534Z,8.77
2022-08-18T18:38:46.620Z,8.68
2022-08-18T18:46:23.251Z,5.32
2022-08-18T18:53:59.172Z,11.73
2022-08-18T18:57:27.568Z,9.02
2022-08-18T19:01:00.726Z,5.18
2022-08-18T19:04:08.081Z,8.98
2022-08-18T19:07:21.040Z,8.32
2022-08-18T19:10:36.067Z,6.72
2022-08-18T19:13:56.850Z,7.72
2022-08-18T19:17:14.563Z,5.25
2022-08-18T19:20:26.914Z,12.40
2022-08-18T19:23:44.954Z,6.68
2022-08-18T19:26:52.146Z,6.18
2022-08-18T19:30:01.872Z,12.00
2022-08-18T19:33:06.624Z,6.97
2022-08-18T19:36:26.613Z,6.90
2022-08-18T19:39:46.391Z,7.68
2022-08-18T19:43:10.532Z,6.53
2022-08-18T19:46:22.829Z,11.73
2022-08-18T19:49:32.534Z,7.55
2022-08-18T19:52:47.215Z,9.55
2022-08-18T19:56:02.252Z,9.82
2022-08-18T19:59:15.387Z,7.68
2022-08-18T20:02:29.604Z,7.20
2022-08-18T20:05:46.988Z,7.18
2022-08-18T20:09:17.860Z,7.20
2022-08-18T20:12:37.917Z,9.90
2022-08-18T20:15:58.956Z,9.00
2022-08-18T20:19:37.824Z,8.25
2022-08-18T20:23:05.781Z,6.55
2022-08-18T20:26:31.779Z,8.50
2022-08-18T20:29:43.573Z,7.30
2022-08-18T20:33:06.408Z,7.32
2022-08-18T20:36:24.814Z,5.07
2022-08-18T20:39:33.742Z,10.55
2022-08-18T20:42:43.675Z,8.68
2022-08-18T20:46:12.450Z,5.80
2022-08-18T20:49:19.726Z,9.68
2022-08-18T20:52:35.871Z,6.40
2022-08-18T20:55:46.427Z,6.55
2022-08-18T20:58:53.928Z,7.10
2022-08-18T21:01:58.074Z,8.38
2022-08-18T21:05:02.011Z,7.65
2022-08-18T21:08:13.191Z,5.55
2022-08-18T21:11:30.940Z,8.30
2022-08-18T21:14:35.155Z,6.03
2022-08-18T21:17:38.059Z,7.72
2022-08-18T21:20:41.032Z,8.35
2022-08-18T21:23:51.834Z,4.95
2022-08-18T21:26:56.283Z,8.55
2022-08-18T21:30:00.260Z,9.57
2022-08-18T21:33:20.151Z,7.18
2022-08-18T21:36:25.456Z,6.95
2022-08-18T21:39:29.679Z,7.70
2022-08-18T21:42:41.640Z,12.30
2022-08-18T21:45:48.000Z,12.20
2022-08-18T21:48:51.866Z,5.90
2022-08-18T21:51:55.370Z,5.93
2022-08-18T21:55:02.843Z,7.63
2022-08-18T21:58:08.556Z,8.80
2022-08-18T22:01:17.343Z,8.85
2022-08-18T22:04:24.280Z,11.82
2022-08-18T22:07:34.303Z,7.93
2022-08-18T22:10:59.699Z,8.88
2022-08-18T22:14:23.527Z,9.82
2022-08-18T22:17:32.375Z,6.72
2022-08-18T22:20:47.229Z,12.02
2022-08-18T22:24:07.331Z,7.85
2022-08-18T22:27:13.194Z,7.60
2022-08-18T22:30:19.454Z,9.43
2022-08-18T22:33:22.932Z,6.70
2022-08-18T22:36:28.206Z,8.73
2022-08-18T22:39:33.679Z,7.85
2022-08-18T22:42:38.002Z,9.13
2022-08-18T22:45:41.330Z,10.38
2022-08-18T22:48:44.193Z,6.88
2022-08-18T22:51:48.280Z,9.40
2022-08-18T22:54:51.289Z,8.43
2022-08-18T22:57:56.385Z,6.47
2022-08-18T23:01:05.530Z,7.45
2022-08-18T23:04:08.687Z,8.45
2022-08-18T23:07:11.379Z,6.18
2022-08-18T23:10:16.408Z,8.10
2022-08-18T23:13:21.148Z,8.40
2022-08-18T23:16:31.999Z,5.07
2022-08-18T23:19:35.393Z,5.13
2022-08-18T23:22:38.036Z,4.72
2022-08-18T23:25:41.366Z,6.57
2022-08-18T23:28:46.614Z,5.18
2022-08-18T23:31:50.090Z,7.00
2022-08-18T23:34:52.756Z,6.82
2022-08-18T23:37:55.586Z,13.13
2022-08-18T23:40:58.236Z,6.65
2022-08-18T23:44:02.296Z,8.98
2022-08-18T23:47:05.948Z,7.97
2022-08-18T23:50:08.927Z,9.00
2022-08-18T23:53:12.442Z,9.05
2022-08-18T23:56:15.156Z,8.60
2022-08-18T23:59:20.931Z,7.32
